createdAt,value
2023-04-19T00:00:14.515Z,99.90
2023-04-19T00:02:42.894Z,99.90
2023-04-19T00:05:12.126Z,99.90
2023-04-19T00:07:41.197Z,99.90
2023-04-19T00:10:09.147Z,99.90
2023-04-19T00:12:36.339Z,99.90
2023-04-19T00:15:03.419Z,99.90
2023-04-19T00:17:30.492Z,99.90
2023-04-19T00:19:57.960Z,99.90
2023-04-19T00:22:24.942Z,99.90
2023-04-19T00:24:52.245Z,99.80
2023-04-19T00:27:19.508Z,99.70
2023-04-19T00:29:46.338Z,99.70
2023-04-19T00:32:13.300Z,99.50
2023-04-19T00:34:40.165Z,99.40
2023-04-19T00:37:08.946Z,99.10
2023-04-19T00:39:36.237Z,99.10
2023-04-19T00:42:03.470Z,99.20
2023-04-19T00:44:30.758Z,99.10
2023-04-19T00:46:58.056Z,99.30
2023-04-19T00:49:25.999Z,99.50
2023-04-19T00:51:54.291Z,99.60
2023-04-19T00:54:21.791Z,99.80
2023-04-19T00:56:48.799Z,99.90
2023-04-19T00:59:18.319Z,99.90
2023-04-19T01:01:45.810Z,99.90
2023-04-19T01:04:13.055Z,99.90
2023-04-19T01:06:42.345Z,99.90
2023-04-19T01:09:09.359Z,99.90
2023-04-19T01:11:36.207Z,99.90
2023-04-19T01:14:03.195Z,99.90
2023-04-19T01:16:30.482Z,99.90
2023-04-19T01:18:57.410Z,99.90
2023-04-19T01:21:24.671Z,99.90
2023-04-19T01:23:52.196Z,99.90
2023-04-19T01:26:21.267Z,99.90
2023-04-19T01:28:48.118Z,99.90
2023-04-19T01:31:15.137Z,99.90
2023-04-19T01:33:42.119Z,99.90
2023-04-19T01:36:09.053Z,99.90
2023-04-19T01:38:36.143Z,99.90
2023-04-19T01:41:03.104Z,99.90
2023-04-19T01:43:30.168Z,99.90
2023-04-19T01:45:57.037Z,99.90
2023-04-19T01:48:23.888Z,99.90
2023-04-19T01:50:50.736Z,99.90
2023-04-19T01:53:17.744Z,99.90
2023-04-19T01:55:44.698Z,99.90
2023-04-19T01:58:11.573Z,99.90
2023-04-19T02:00:38.604Z,99.90
2023-04-19T02:03:05.930Z,99.90
2023-04-19T02:05:32.919Z,99.90
2023-04-19T02:08:01.278Z,99.90
2023-04-19T02:10:28.296Z,99.90
2023-04-19T02:12:55.214Z,99.90
2023-04-19T02:15:22.287Z,99.90
2023-04-19T02:17:49.408Z,99.90
2023-04-19T02:20:16.510Z,99.90
2023-04-19T02:22:43.905Z,99.90
2023-04-19T02:25:11.018Z,99.90
2023-04-19T02:27:37.888Z,99.90
2023-04-19T02:30:05.850Z,99.90
2023-04-19T02:32:33.274Z,99.90
2023-04-19T02:35:00.258Z,99.90
2023-04-19T02:37:27.253Z,99.90
2023-04-19T02:39:54.160Z,99.90
2023-04-19T02:42:21.002Z,99.90
2023-04-19T02:44:47.879Z,99.90
2023-04-19T02:47:14.776Z,99.90
2023-04-19T02:49:42.565Z,99.90
2023-04-19T02:52:09.496Z,99.90
2023-04-19T02:54:36.350Z,99.90
2023-04-19T02:57:03.333Z,99.90
2023-04-19T02:59:30.463Z,99.90
2023-04-19T03:01:57.361Z,99.90
2023-04-19T03:04:24.490Z,99.90
2023-04-19T03:06:52.666Z,99.90
2023-04-19T03:09:19.570Z,99.90
2023-04-19T03:11:46.484Z,99.90
2023-04-19T03:14:13.506Z,99.90
2023-04-19T03:16:40.826Z,99.90
2023-04-19T03:19:08.180Z,99.90
2023-04-19T03:21:35.175Z,99.90
2023-04-19T03:24:02.482Z,99.90
2023-04-19T03:26:29.397Z,99.90
2023-04-19T03:28:56.246Z,99.90
2023-04-19T03:31:23.280Z,99.90
2023-04-19T03:33:50.776Z,99.90
2023-04-19T03:36:17.644Z,99.90
2023-04-19T03:38:44.573Z,99.90
2023-04-19T03:41:26.888Z,99.90
2023-04-19T03:43:53.899Z,99.90
2023-04-19T03:46:21.247Z,99.90
2023-04-19T03:48:48.220Z,99.90
2023-04-19T03:51:16.194Z,99.90
2023-04-19T03:53:43.643Z,99.90
2023-04-19T03:56:10.509Z,99.90
2023-04-19T03:58:37.466Z,99.90
2023-04-19T04:01:05.298Z,99.90
2023-04-19T04:03:32.870Z,99.90
2023-04-19T04:06:00.492Z,99.90
2023-04-19T04:08:29.908Z,99.90
2023-04-19T04:10:56.858Z,99.90
2023-04-19T04:13:23.847Z,99.90
2023-04-19T04:15:50.813Z,99.90
2023-04-19T04:18:17.935Z,99.90
2023-04-19T04:20:45.138Z,99.90
2023-04-19T04:23:12.230Z,99.90
2023-04-19T04:25:39.136Z,99.90
2023-04-19T04:28:06.754Z,99.90
2023-04-19T04:30:34.242Z,99.90
2023-04-19T04:33:01.279Z,99.90
2023-04-19T04:35:29.914Z,99.90
2023-04-19T04:37:56.953Z,99.90
2023-04-19T04:40:23.955Z,99.90
2023-04-19T04:42:52.837Z,99.90
2023-04-19T04:45:20.051Z,99.90
2023-04-19T04:47:47.210Z,99.90
2023-04-19T04:50:14.305Z,99.90
2023-04-19T04:52:41.361Z,99.90
2023-04-19T04:55:09.345Z,99.90
2023-04-19T04:57:36.249Z,99.90
2023-04-19T05:00:06.488Z,99.90
2023-04-19T05:02:33.454Z,99.90
2023-04-19T05:05:00.508Z,99.90
2023-04-19T05:07:27.394Z,99.90
2023-04-19T05:09:54.277Z,99.90
2023-04-19T05:12:21.264Z,99.90
2023-04-19T05:14:48.204Z,99.90
2023-04-19T05:17:15.196Z,99.90
2023-04-19T05:19:42.035Z,99.90
2023-04-19T05:22:08.941Z,99.90
2023-04-19T05:24:36.501Z,99.90
2023-04-19T05:27:03.552Z,99.90
2023-04-19T05:29:31.528Z,99.90
2023-04-19T05:31:59.067Z,99.90
2023-04-19T05:34:25.933Z,99.90
2023-04-19T05:36:52.832Z,99.90
2023-04-19T05:39:19.801Z,99.90
2023-04-19T05:41:46.655Z,99.90
2023-04-19T05:44:13.705Z,99.90
2023-04-19T05:46:40.872Z,99.90
2023-04-19T05:49:07.765Z,99.90
2023-04-19T05:51:34.765Z,99.90
2023-04-19T05:54:01.915Z,99.90
2023-04-19T05:56:29.805Z,99.90
2023-04-19T05:58:56.770Z,99.90
2023-04-19T06:01:24.323Z,99.90
2023-04-19T06:03:53.542Z,99.90
2023-04-19T06:06:23.874Z,99.90
2023-04-19T06:08:53.296Z,99.90
2023-04-19T06:11:28.845Z,99.90
2023-04-19T06:14:02.153Z,99.90
2023-04-19T06:16:29.055Z,99.90
2023-04-19T06:18:56.549Z,99.90
2023-04-19T06:21:23.581Z,99.90
2023-04-19T06:23:50.492Z,99.90
2023-04-19T06:26:17.464Z,99.90
2023-04-19T06:28:44.375Z,99.90
2023-04-19T06:31:12.169Z,99.90
2023-04-19T06:33:39.114Z,99.90
2023-04-19T06:36:06.622Z,99.90
2023-04-19T06:38:33.548Z,99.90
2023-04-19T06:41:00.645Z,99.90
2023-04-19T06:43:27.509Z,99.90
2023-04-19T06:46:06.721Z,99.90
2023-04-19T06:48:35.304Z,99.90
2023-04-19T06:51:02.620Z,99.90
2023-04-19T06:53:29.556Z,99.90
2023-04-19T06:56:02.226Z,99.90
2023-04-19T06:58:30.104Z,99.90
2023-04-19T07:00:57.460Z,99.90
2023-04-19T07:03:24.663Z,99.90
2023-04-19T07:05:56.200Z,99.90
2023-04-19T07:08:32.184Z,99.90
2023-04-19T07:11:06.019Z,99.90
2023-04-19T07:13:32.944Z,99.90
2023-04-19T07:16:00.031Z,99.90
2023-04-19T07:18:27.011Z,99.90
2023-04-19T07:20:54.157Z,99.90
2023-04-19T07:23:21.111Z,99.90
2023-04-19T07:25:48.089Z,99.90
2023-04-19T07:28:15.845Z,99.90
2023-04-19T07:30:45.908Z,99.90
2023-04-19T07:33:13.034Z,99.90
2023-04-19T07:35:40.554Z,99.90
2023-04-19T07:38:07.677Z,99.90
2023-04-19T07:40:34.535Z,99.90
2023-04-19T07:43:01.508Z,99.90
2023-04-19T07:45:30.992Z,99.90
2023-04-19T07:47:58.350Z,99.90
2023-04-19T07:50:26.987Z,99.90
2023-04-19T07:52:54.152Z,99.90
2023-04-19T07:55:21.326Z,99.90
2023-04-19T07:57:49.328Z,99.90
2023-04-19T08:00:18.728Z,99.90
2023-04-19T08:04:01.087Z,99.90
2023-04-19T08:06:29.600Z,99.90
2023-04-19T08:08:56.714Z,99.90
2023-04-19T08:11:24.960Z,99.90
2023-04-19T08:14:04.453Z,99.90
2023-04-19T08:19:06.345Z,99.90
2023-04-19T08:21:40.580Z,99.90
2023-04-19T08:24:08.883Z,99.90
2023-04-19T08:26:35.850Z,99.90
2023-04-19T08:29:02.758Z,99.90
2023-04-19T08:31:29.674Z,99.90
2023-04-19T08:33:58.376Z,99.90
2023-04-19T08:36:37.116Z,99.90
2023-04-19T08:39:12.311Z,99.90
2023-04-19T08:41:48.149Z,99.90
2023-04-19T08:44:32.521Z,99.90
2023-04-19T08:47:03.836Z,99.90
2023-04-19T08:49:35.726Z,99.90
2023-04-19T08:52:03.513Z,99.90
2023-04-19T08:54:30.474Z,99.90
2023-04-19T08:57:03.159Z,99.90
2023-04-19T08:59:33.037Z,99.90
2023-04-19T09:02:03.716Z,99.90
2023-04-19T09:04:37.008Z,99.90
2023-04-19T09:07:04.940Z,99.90
2023-04-19T09:12:02.782Z,99.90
2023-04-19T09:14:30.514Z,99.90
2023-04-19T09:17:17.466Z,99.90
2023-04-19T09:19:50.111Z,99.90
2023-04-19T09:22:18.762Z,99.90
2023-04-19T09:25:22.581Z,99.90
2023-04-19T09:27:36.330Z,99.90
2023-04-19T09:30:06.167Z,99.90
2023-04-19T09:32:49.599Z,99.90
2023-04-19T09:35:16.828Z,99.90
2023-04-19T09:38:05.840Z,99.90
2023-04-19T09:40:34.258Z,99.90
2023-04-19T09:43:18.022Z,99.90
2023-04-19T09:45:50.889Z,99.90
2023-04-19T09:48:18.069Z,99.90
2023-04-19T09:51:05.466Z,99.90
2023-04-19T09:53:35.075Z,99.90
2023-04-19T09:56:04.180Z,99.90
2023-04-19T10:01:13.909Z,99.90
2023-04-19T10:03:46.927Z,99.90
2023-04-19T10:08:53.841Z,99.90
2023-04-19T10:11:33.667Z,99.90
2023-04-19T10:14:05.306Z,99.90
2023-04-19T10:16:34.240Z,99.90
2023-04-19T10:19:11.647Z,99.90
2023-04-19T10:21:41.982Z,99.90
2023-04-19T10:24:12.459Z,99.90
2023-04-19T10:27:13.064Z,99.90
2023-04-19T10:30:00.103Z,99.90
2023-04-19T10:32:38.384Z,99.90
2023-04-19T10:35:33.482Z,99.90
2023-04-19T10:38:16.503Z,99.90
2023-04-19T10:41:00.609Z,99.90
2023-04-19T10:43:34.487Z,99.90
2023-04-19T10:46:25.699Z,99.90
2023-04-19T10:49:07.733Z,99.90
2023-04-19T10:51:43.238Z,99.90
2023-04-19T10:54:31.758Z,99.90
2023-04-19T10:57:11.028Z,99.90
2023-04-19T10:59:44.260Z,99.90
2023-04-19T11:02:23.710Z,99.90
2023-04-19T11:04:50.884Z,98.60
2023-04-19T11:07:20.157Z,98.70
2023-04-19T11:09:49.625Z,92.30
2023-04-19T11:12:20.912Z,85.70
2023-04-19T11:14:59.719Z,85.10
2023-04-19T11:17:32.245Z,80.30
2023-04-19T11:20:06.958Z,78.70
2023-04-19T11:22:40.367Z,75.00
2023-04-19T11:25:19.052Z,72.70
2023-04-19T11:27:50.799Z,72.60
2023-04-19T11:30:22.406Z,72.90
2023-04-19T11:32:54.548Z,71.90
2023-04-19T11:35:28.547Z,73.90
2023-04-19T11:37:59.039Z,73.10
2023-04-19T11:40:26.718Z,72.10
2023-04-19T11:43:00.363Z,66.50
2023-04-19T11:45:39.452Z,63.10
2023-04-19T11:48:15.777Z,58.60
2023-04-19T11:50:45.606Z,60.70
2023-04-19T11:53:24.752Z,63.40
2023-04-19T11:56:05.595Z,64.00
2023-04-19T11:58:49.779Z,66.70
2023-04-19T12:01:21.488Z,61.70
2023-04-19T12:03:53.057Z,60.20
2023-04-19T12:06:25.872Z,56.40
2023-04-19T12:08:55.379Z,54.60
2023-04-19T12:11:27.524Z,56.60
2023-04-19T12:14:18.367Z,55.40
2023-04-19T12:16:46.373Z,53.10
2023-04-19T12:19:20.287Z,56.30
2023-04-19T12:21:48.052Z,57.40
2023-04-19T12:24:18.387Z,58.20
2023-04-19T12:28:14.500Z,56.00
2023-04-19T12:29:46.076Z,53.60
2023-04-19T12:32:16.347Z,53.20
2023-04-19T12:34:43.666Z,52.00
2023-04-19T12:37:10.873Z,51.30
2023-04-19T12:39:37.817Z,50.20
2023-04-19T12:42:06.098Z,48.00
2023-04-19T12:44:33.121Z,46.60
2023-04-19T12:46:59.965Z,47.20
2023-04-19T12:49:27.194Z,48.40
2023-04-19T12:51:55.799Z,48.60
2023-04-19T12:54:24.002Z,46.50
2023-04-19T12:56:50.928Z,45.60
2023-04-19T12:59:18.262Z,43.90
2023-04-19T13:01:45.482Z,44.50
2023-04-19T13:04:12.608Z,43.80
2023-04-19T13:06:40.393Z,43.10
2023-04-19T13:09:14.325Z,43.50
2023-04-19T13:11:42.052Z,41.10
2023-04-19T13:14:08.928Z,44.40
2023-04-19T13:16:35.939Z,43.10
2023-04-19T13:19:02.855Z,42.00
2023-04-19T13:21:29.734Z,41.00
2023-04-19T13:23:59.152Z,41.00
2023-04-19T13:26:26.457Z,38.80
2023-04-19T13:28:53.436Z,39.00
2023-04-19T13:31:20.325Z,37.00
2023-04-19T13:33:47.511Z,36.30
2023-04-19T13:36:14.417Z,37.00
2023-04-19T13:38:41.386Z,38.20
2023-04-19T13:41:08.301Z,39.00
2023-04-19T13:43:35.226Z,37.60
2023-04-19T13:46:02.082Z,39.20
2023-04-19T13:48:29.188Z,39.00
2023-04-19T13:50:58.166Z,39.40
2023-04-19T13:53:28.744Z,37.20
2023-04-19T13:55:57.010Z,36.20
2023-04-19T13:58:24.811Z,34.50
2023-04-19T14:00:52.787Z,35.50
2023-04-19T14:03:21.627Z,36.60
2023-04-19T14:05:48.574Z,38.50
2023-04-19T14:08:15.444Z,40.40
2023-04-19T14:10:42.414Z,40.10
2023-04-19T14:13:09.310Z,40.90
2023-04-19T14:15:36.271Z,39.30
2023-04-19T14:18:03.416Z,38.30
2023-04-19T14:20:30.322Z,38.70
2023-04-19T14:22:58.911Z,37.10
2023-04-19T14:25:26.636Z,37.80
2023-04-19T14:27:53.512Z,37.70
2023-04-19T14:30:20.913Z,37.40
2023-04-19T14:32:47.993Z,37.20
2023-04-19T14:35:14.931Z,38.20
2023-04-19T14:37:41.899Z,38.10
2023-04-19T14:40:10.941Z,36.80
2023-04-19T14:42:38.133Z,36.80
2023-04-19T14:45:06.646Z,36.90
2023-04-19T14:47:34.148Z,37.50
2023-04-19T14:50:01.096Z,36.90
2023-04-19T14:52:29.223Z,37.50
2023-04-19T14:54:57.564Z,37.70
2023-04-19T14:57:25.643Z,37.70
2023-04-19T14:59:57.957Z,39.60
2023-04-19T15:02:25.771Z,41.60
2023-04-19T15:04:54.032Z,40.30
2023-04-19T15:07:21.716Z,39.80
2023-04-19T15:09:48.812Z,39.00
2023-04-19T15:12:15.745Z,39.80
2023-04-19T15:14:42.733Z,39.30
2023-04-19T15:17:09.840Z,39.10
2023-04-19T15:19:38.428Z,38.50
2023-04-19T15:22:08.551Z,37.20
2023-04-19T15:24:35.793Z,37.70
2023-04-19T15:27:02.813Z,37.10
2023-04-19T15:29:30.130Z,37.80
2023-04-19T15:31:57.345Z,37.50
2023-04-19T15:34:25.282Z,39.40
2023-04-19T15:36:52.213Z,41.10
2023-04-19T15:39:19.077Z,43.30
2023-04-19T15:41:47.826Z,42.90
2023-04-19T15:44:14.684Z,43.60
2023-04-19T15:46:43.265Z,44.90
2023-04-19T15:49:10.219Z,44.40
2023-04-19T15:51:38.181Z,42.30
2023-04-19T15:54:06.615Z,41.60
2023-04-19T15:56:33.534Z,41.10
2023-04-19T15:59:00.562Z,40.70
2023-04-19T16:01:27.620Z,39.10
2023-04-19T16:03:54.870Z,39.70
2023-04-19T16:06:23.074Z,39.80
2023-04-19T16:08:50.931Z,39.50
2023-04-19T16:11:17.859Z,40.20
2023-04-19T16:13:44.742Z,41.20
2023-04-19T16:16:11.676Z,41.20
2023-04-19T16:18:38.569Z,42.20
2023-04-19T16:21:05.881Z,42.60
2023-04-19T16:23:32.780Z,42.60
2023-04-19T16:25:59.729Z,42.40
2023-04-19T16:28:26.673Z,42.90
2023-04-19T16:30:53.594Z,41.90
2023-04-19T16:33:20.828Z,42.00
2023-04-19T16:35:47.762Z,41.40
2023-04-19T16:38:14.691Z,42.40
2023-04-19T16:40:41.604Z,42.90
2023-04-19T16:43:08.549Z,42.10
2023-04-19T16:45:35.627Z,42.60
2023-04-19T16:48:02.601Z,41.80
2023-04-19T16:50:29.708Z,42.00
2023-04-19T16:52:56.650Z,41.90
2023-04-19T16:55:23.591Z,42.60
2023-04-19T16:57:51.003Z,44.20
2023-04-19T17:00:18.428Z,44.20
2023-04-19T17:02:45.577Z,43.90
2023-04-19T17:05:13.770Z,44.30
2023-04-19T17:07:40.678Z,44.70
2023-04-19T17:10:08.702Z,45.70
2023-04-19T17:12:35.685Z,46.80
2023-04-19T17:15:02.888Z,48.70
2023-04-19T17:17:29.797Z,49.40
2023-04-19T17:19:57.507Z,50.30
2023-04-19T17:22:24.505Z,50.20
2023-04-19T17:24:51.481Z,49.20
2023-04-19T17:27:18.398Z,49.10
2023-04-19T17:29:45.635Z,50.90
2023-04-19T17:32:12.613Z,51.60
2023-04-19T17:34:39.481Z,52.60
2023-04-19T17:37:06.401Z,53.50
2023-04-19T17:39:33.381Z,54.10
2023-04-19T17:42:00.317Z,54.60
2023-04-19T17:44:27.190Z,54.70
2023-04-19T17:46:54.260Z,54.80
2023-04-19T17:49:21.776Z,55.10
2023-04-19T17:51:49.015Z,55.70
2023-04-19T17:54:16.225Z,56.00
2023-04-19T17:56:43.249Z,56.50
2023-04-19T17:59:10.136Z,56.90
2023-04-19T18:01:37.951Z,57.20
2023-04-19T18:04:05.570Z,57.40
2023-04-19T18:06:32.863Z,58.10
2023-04-19T18:09:00.437Z,58.60
2023-04-19T18:11:28.638Z,59.10
2023-04-19T18:13:56.201Z,59.70
2023-04-19T18:16:23.384Z,60.10
2023-04-19T18:18:50.629Z,60.80
2023-04-19T18:21:18.592Z,61.10
2023-04-19T18:23:45.809Z,61.90
2023-04-19T18:26:12.826Z,62.50
2023-04-19T18:28:40.353Z,63.00
2023-04-19T18:31:09.218Z,63.40
2023-04-19T18:33:36.441Z,64.30
2023-04-19T18:36:05.324Z,64.40
2023-04-19T18:38:32.381Z,64.90
2023-04-19T18:40:59.456Z,65.60
2023-04-19T18:43:28.657Z,65.90
2023-04-19T18:45:56.716Z,66.30
2023-04-19T18:48:28.406Z,66.70
2023-04-19T18:50:57.134Z,66.80
2023-04-19T18:53:31.462Z,67.30
2023-04-19T18:55:58.611Z,67.60
2023-04-19T18:58:29.492Z,68.10
2023-04-19T19:00:58.148Z,68.50
2023-04-19T19:05:57.773Z,68.90
2023-04-19T19:08:25.166Z,69.20
2023-04-19T19:13:21.982Z,69.90
2023-04-19T19:15:48.992Z,70.50
2023-04-19T19:18:16.064Z,70.60
2023-04-19T19:20:43.032Z,71.00
2023-04-19T19:23:10.023Z,71.10
2023-04-19T19:25:36.951Z,71.50
2023-04-19T19:28:09.228Z,72.30
2023-04-19T19:30:39.493Z,72.40
2023-04-19T19:33:06.590Z,72.80
2023-04-19T19:35:33.626Z,73.40
2023-04-19T19:38:00.578Z,73.70
2023-04-19T19:40:31.081Z,74.30
2023-04-19T19:43:00.993Z,74.70
2023-04-19T19:45:30.177Z,75.20
2023-04-19T19:48:01.545Z,75.60
2023-04-19T19:52:59.740Z,76.50
2023-04-19T19:55:26.847Z,76.70
2023-04-19T20:00:44.033Z,77.40
2023-04-19T20:03:12.535Z,77.90
2023-04-19T20:05:39.811Z,78.30
2023-04-19T20:08:12.066Z,78.70
2023-04-19T20:10:41.923Z,79.30
2023-04-19T20:13:09.217Z,79.00
2023-04-19T20:15:38.223Z,80.00
2023-04-19T20:18:07.972Z,80.40
2023-04-19T20:20:36.644Z,80.90
2023-04-19T20:23:03.668Z,81.10
2023-04-19T20:25:32.381Z,81.50
2023-04-19T20:28:01.159Z,82.00
2023-04-19T20:30:28.260Z,82.80
2023-04-19T20:32:55.258Z,83.50
2023-04-19T20:35:22.213Z,84.20
2023-04-19T20:37:50.714Z,84.50
2023-04-19T20:40:17.698Z,84.80
2023-04-19T20:42:44.878Z,85.10
2023-04-19T20:45:12.780Z,84.60
2023-04-19T20:47:41.017Z,85.10
2023-04-19T20:50:09.726Z,84.70
2023-04-19T20:52:36.627Z,85.40
2023-04-19T20:55:04.739Z,85.70
2023-04-19T20:57:31.651Z,86.50
2023-04-19T20:59:59.377Z,86.70
2023-04-19T21:02:27.821Z,86.80
2023-04-19T21:04:54.811Z,87.00
2023-04-19T21:07:21.705Z,87.60
2023-04-19T21:09:48.584Z,88.20
2023-04-19T21:12:15.912Z,90.00
2023-04-19T21:14:45.229Z,90.40
2023-04-19T21:17:13.620Z,90.70
2023-04-19T21:19:40.463Z,90.80
2023-04-19T21:22:07.339Z,90.90
2023-04-19T21:24:34.248Z,91.10
2023-04-19T21:27:01.386Z,91.10
2023-04-19T21:29:28.266Z,91.30
2023-04-19T21:31:55.304Z,91.70
2023-04-19T21:34:22.836Z,91.80
2023-04-19T21:36:49.689Z,91.70
2023-04-19T21:39:16.789Z,92.10
2023-04-19T21:41:43.802Z,92.30
2023-04-19T21:44:10.745Z,92.40
2023-04-19T21:46:37.747Z,92.80
2023-04-19T21:49:04.656Z,92.80
2023-04-19T21:51:31.906Z,93.00
2023-04-19T21:53:58.755Z,93.00
2023-04-19T21:56:25.803Z,93.50
2023-04-19T21:58:52.711Z,94.30
2023-04-19T22:01:19.600Z,95.00
2023-04-19T22:03:47.090Z,95.20
2023-04-19T22:06:16.907Z,95.90
2023-04-19T22:08:43.873Z,96.70
2023-04-19T22:11:11.774Z,97.30
2023-04-19T22:13:38.691Z,97.40
2023-04-19T22:16:06.232Z,97.90
2023-04-19T22:18:35.589Z,98.10
2023-04-19T22:21:02.683Z,98.40
2023-04-19T22:23:29.698Z,98.70
2023-04-19T22:25:56.656Z,99.30
2023-04-19T22:28:23.501Z,99.80
2023-04-19T22:30:51.552Z,99.80
2023-04-19T22:33:19.342Z,99.50
2023-04-19T22:35:46.424Z,99.20
2023-04-19T22:38:13.565Z,99.30
2023-04-19T22:40:40.768Z,99.00
2023-04-19T22:43:07.681Z,98.90
2023-04-19T22:45:34.655Z,99.00
2023-04-19T22:48:03.094Z,99.50
2023-04-19T22:50:30.044Z,99.90
2023-04-19T22:52:56.964Z,99.90
2023-04-19T22:55:24.236Z,99.90
2023-04-19T22:57:51.147Z,99.90
2023-04-19T23:00:18.667Z,99.90
2023-04-19T23:02:45.744Z,99.90
2023-04-19T23:05:13.080Z,99.90
2023-04-19T23:07:41.718Z,99.90
2023-04-19T23:10:10.174Z,99.90
2023-04-19T23:12:38.710Z,99.90
2023-04-19T23:15:07.742Z,99.90
2023-04-19T23:17:34.707Z,99.90
2023-04-19T23:20:01.739Z,99.90
2023-04-19T23:22:28.576Z,99.90
2023-04-19T23:24:55.398Z,99.90
2023-04-19T23:27:22.306Z,99.90
2023-04-19T23:29:49.190Z,99.90
2023-04-19T23:32:17.978Z,99.90
2023-04-19T23:34:45.214Z,99.90
2023-04-19T23:37:13.689Z,99.90
2023-04-19T23:39:40.572Z,99.90
2023-04-19T23:42:07.685Z,99.90
2023-04-19T23:44:34.952Z,99.90
2023-04-19T23:47:04.801Z,99.90
2023-04-19T23:49:32.254Z,99.90
2023-04-19T23:51:59.149Z,99.90
2023-04-19T23:54:26.297Z,99.90
2023-04-19T23:56:54.229Z,99.90
2023-04-19T23:59:21.389Z,99.90
